createdAt,value
2023-05-01T00:00:28.047Z,20.31
2023-05-01T00:02:58.939Z,20.34
2023-05-01T00:05:29.606Z,20.39
2023-05-01T00:08:00.024Z,20.44
2023-05-01T00:10:29.930Z,20.35
2023-05-01T00:13:00.707Z,20.27
2023-05-01T00:15:30.831Z,20.07
2023-05-01T00:18:01.389Z,20.06
2023-05-01T00:20:32.237Z,19.95
2023-05-01T00:23:02.624Z,19.98
2023-05-01T00:25:32.644Z,19.92
2023-05-01T00:28:03.295Z,19.94
2023-05-01T00:30:35.704Z,19.98
2023-05-01T00:33:07.195Z,19.41
2023-05-01T00:35:37.293Z,19.40
2023-05-01T00:38:08.439Z,19.66
2023-05-01T00:40:47.801Z,19.59
2023-05-01T00:43:18.152Z,19.62
2023-05-01T00:45:48.173Z,19.60
2023-05-01T00:48:18.651Z,19.49
2023-05-01T00:50:51.473Z,19.52
2023-05-01T00:53:22.879Z,19.28
2023-05-01T00:55:52.814Z,19.51
2023-05-01T00:58:23.464Z,19.56
2023-05-01T01:00:54.214Z,19.55
2023-05-01T01:03:24.664Z,19.43
2023-05-01T01:06:15.007Z,19.42
2023-05-01T01:09:00.248Z,19.39
2023-05-01T01:11:39.816Z,19.44
2023-05-01T01:14:21.267Z,19.48
2023-05-01T01:17:03.246Z,19.09
2023-05-01T01:19:51.529Z,19.36
2023-05-01T01:22:25.293Z,19.43
2023-05-01T01:25:29.472Z,19.20
2023-05-01T01:28:05.141Z,18.96
2023-05-01T01:31:10.713Z,18.79
2023-05-01T01:34:25.007Z,18.66
2023-05-01T01:37:09.824Z,18.73
2023-05-01T01:39:47.881Z,18.58
2023-05-01T01:42:23.559Z,18.52
2023-05-01T01:45:00.339Z,18.50
2023-05-01T01:47:34.648Z,18.49
2023-05-01T01:50:08.219Z,18.50
2023-05-01T01:52:42.091Z,18.55
2023-05-01T01:55:16.145Z,18.88
2023-05-01T01:57:48.033Z,19.07
2023-05-01T02:00:19.278Z,19.20
2023-05-01T02:02:54.390Z,18.99
2023-05-01T02:05:26.448Z,19.14
2023-05-01T02:07:59.207Z,18.81
2023-05-01T02:10:31.053Z,18.70
2023-05-01T02:13:03.393Z,18.53
2023-05-01T02:15:35.641Z,18.66
2023-05-01T02:18:07.852Z,18.48
2023-05-01T02:20:39.197Z,18.41
2023-05-01T02:23:10.184Z,18.70
2023-05-01T02:25:41.807Z,18.97
2023-05-01T02:28:15.263Z,19.04
2023-05-01T02:30:46.211Z,19.27
2023-05-01T02:33:16.724Z,19.40
2023-05-01T02:35:48.558Z,19.02
2023-05-01T02:38:20.906Z,19.18
2023-05-01T02:40:56.405Z,19.38
2023-05-01T02:43:29.070Z,19.48
2023-05-01T02:46:00.292Z,19.42
2023-05-01T02:48:34.338Z,19.86
2023-05-01T02:51:05.155Z,20.29
2023-05-01T02:53:36.499Z,20.42
2023-05-01T02:56:17.264Z,20.50
2023-05-01T02:58:47.690Z,20.59
2023-05-01T03:01:17.670Z,20.80
2023-05-01T03:03:48.607Z,21.00
2023-05-01T03:06:22.180Z,21.08
2023-05-01T03:08:53.014Z,21.17
2023-05-01T03:11:23.120Z,21.22
2023-05-01T03:13:53.944Z,21.32
2023-05-01T03:16:24.057Z,21.36
2023-05-01T03:18:54.539Z,21.67
2023-05-01T03:21:24.518Z,21.75
2023-05-01T03:23:55.548Z,21.60
2023-05-01T03:26:25.744Z,21.42
2023-05-01T03:28:56.340Z,21.53
2023-05-01T03:31:27.272Z,21.83
2023-05-01T03:34:00.261Z,21.91
2023-05-01T03:36:30.262Z,21.78
2023-05-01T03:39:00.687Z,22.05
2023-05-01T03:41:48.922Z,22.09
2023-05-01T03:44:26.504Z,22.16
2023-05-01T03:46:56.433Z,22.20
2023-05-01T03:49:31.038Z,22.15
2023-05-01T03:52:00.999Z,21.97
2023-05-01T03:54:31.648Z,21.60
2023-05-01T03:57:21.903Z,21.23
2023-05-01T03:59:53.138Z,21.01
2023-05-01T04:02:24.010Z,21.14
2023-05-01T04:04:54.543Z,21.57
2023-05-01T04:07:25.852Z,21.45
2023-05-01T04:09:56.678Z,21.60
2023-05-01T04:12:26.984Z,21.36
2023-05-01T04:14:57.456Z,20.96
2023-05-01T04:17:27.599Z,21.02
2023-05-01T04:19:58.860Z,21.63
2023-05-01T04:22:29.067Z,21.43
2023-05-01T04:24:58.898Z,20.84
2023-05-01T04:27:29.295Z,20.60
2023-05-01T04:29:59.463Z,20.67
2023-05-01T04:32:31.438Z,20.46
2023-05-01T04:35:01.446Z,20.00
2023-05-01T04:37:32.358Z,19.85
2023-05-01T04:40:02.352Z,19.46
2023-05-01T04:42:33.768Z,19.06
2023-05-01T04:45:05.278Z,19.06
2023-05-01T04:47:38.890Z,19.25
2023-05-01T04:50:09.510Z,19.19
2023-05-01T04:52:40.339Z,19.22
2023-05-01T04:55:11.534Z,19.20
2023-05-01T04:57:54.818Z,18.99
2023-05-01T05:00:25.042Z,18.89
2023-05-01T05:02:58.731Z,18.90
2023-05-01T05:05:29.143Z,19.17
2023-05-01T05:07:59.454Z,19.16
2023-05-01T05:10:59.324Z,19.18
2023-05-01T05:13:42.206Z,18.93
2023-05-01T05:16:16.365Z,18.93
2023-05-01T05:18:46.845Z,19.03
2023-05-01T05:21:16.970Z,18.80
2023-05-01T05:23:54.393Z,18.88
2023-05-01T05:26:24.711Z,19.05
2023-05-01T05:28:55.970Z,19.01
2023-05-01T05:31:26.010Z,19.07
2023-05-01T05:33:56.353Z,19.17
2023-05-01T05:36:28.797Z,19.26
2023-05-01T05:39:00.498Z,19.36
2023-05-01T05:41:31.053Z,19.19
2023-05-01T05:44:04.250Z,19.06
2023-05-01T05:46:34.284Z,19.21
2023-05-01T05:49:04.804Z,19.12
2023-05-01T05:51:34.860Z,19.16
2023-05-01T05:54:05.614Z,19.36
2023-05-01T05:56:37.917Z,19.28
2023-05-01T05:59:08.862Z,19.13
2023-05-01T06:01:38.953Z,18.94
2023-05-01T06:04:09.614Z,18.89
2023-05-01T06:06:42.130Z,18.70
2023-05-01T06:09:13.898Z,18.46
2023-05-01T06:11:43.890Z,18.24
2023-05-01T06:14:14.700Z,18.07
2023-05-01T06:16:44.827Z,17.79
2023-05-01T06:19:15.279Z,17.57
2023-05-01T06:21:46.109Z,17.43
2023-05-01T06:24:17.317Z,17.28
2023-05-01T06:26:52.539Z,17.23
2023-05-01T06:29:23.065Z,17.04
2023-05-01T06:31:53.212Z,17.02
2023-05-01T06:34:24.230Z,16.91
2023-05-01T06:36:57.456Z,16.82
2023-05-01T06:39:27.808Z,16.79
2023-05-01T06:41:57.838Z,16.91
2023-05-01T06:44:42.049Z,16.92
2023-05-01T06:47:12.238Z,16.98
2023-05-01T06:49:44.741Z,16.92
2023-05-01T06:52:14.652Z,16.74
2023-05-01T06:54:44.400Z,16.85
2023-05-01T06:57:14.826Z,16.80
2023-05-01T06:59:44.724Z,16.91
2023-05-01T07:02:14.666Z,16.86
2023-05-01T07:04:45.551Z,16.76
2023-05-01T07:07:15.466Z,16.74
2023-05-01T07:09:46.284Z,16.85
2023-05-01T07:12:16.295Z,16.63
2023-05-01T07:14:46.616Z,16.62
2023-05-01T07:17:17.160Z,16.54
2023-05-01T07:19:47.547Z,16.46
2023-05-01T07:22:17.840Z,16.62
2023-05-01T07:24:48.189Z,16.44
2023-05-01T07:27:18.097Z,16.42
2023-05-01T07:29:48.519Z,16.39
2023-05-01T07:32:18.758Z,16.42
2023-05-01T07:34:49.206Z,16.46
2023-05-01T07:37:19.938Z,16.46
2023-05-01T07:39:50.306Z,16.40
2023-05-01T07:42:20.248Z,16.38
2023-05-01T07:44:52.788Z,16.45
2023-05-01T07:47:23.194Z,16.33
2023-05-01T07:49:53.637Z,16.24
2023-05-01T07:52:23.696Z,16.23
2023-05-01T07:54:53.480Z,16.37
2023-05-01T07:57:26.686Z,16.25
2023-05-01T08:00:00.305Z,16.19
2023-05-01T08:02:30.748Z,16.14
2023-05-01T08:05:01.215Z,16.24
2023-05-01T08:07:31.978Z,16.38
2023-05-01T08:10:02.177Z,16.42
2023-05-01T08:12:32.891Z,16.47
2023-05-01T08:15:02.864Z,16.50
2023-05-01T08:17:33.336Z,16.49
2023-05-01T08:20:03.558Z,16.43
2023-05-01T08:22:33.958Z,16.22
2023-05-01T08:25:03.880Z,16.17
2023-05-01T08:27:34.934Z,16.08
2023-05-01T08:30:05.051Z,16.23
2023-05-01T08:32:35.515Z,16.35
2023-05-01T08:35:05.638Z,16.37
2023-05-01T08:37:36.441Z,16.24
2023-05-01T08:40:09.832Z,16.33
2023-05-01T08:42:40.390Z,16.42
2023-05-01T08:45:11.829Z,16.44
2023-05-01T08:47:42.619Z,16.42
2023-05-01T08:50:15.664Z,16.26
2023-05-01T08:52:46.194Z,16.36
2023-05-01T08:55:17.489Z,16.34
2023-05-01T08:57:48.749Z,16.31
2023-05-01T09:00:23.019Z,16.29
2023-05-01T09:02:53.940Z,16.29
2023-05-01T09:05:24.005Z,16.25
2023-05-01T09:07:54.662Z,16.32
2023-05-01T09:10:26.197Z,16.31
2023-05-01T09:12:59.146Z,16.25
2023-05-01T09:15:31.415Z,16.25
2023-05-01T09:18:03.808Z,16.39
2023-05-01T09:20:38.268Z,16.40
2023-05-01T09:23:08.379Z,16.26
2023-05-01T09:25:39.770Z,16.20
2023-05-01T09:28:09.773Z,16.29
2023-05-01T09:30:40.801Z,16.05
2023-05-01T09:33:11.946Z,15.99
2023-05-01T09:36:00.794Z,16.00
2023-05-01T09:38:31.755Z,15.98
2023-05-01T09:41:10.656Z,15.98
2023-05-01T09:43:40.824Z,16.16
2023-05-01T09:46:13.031Z,16.34
2023-05-01T09:48:53.605Z,16.38
2023-05-01T09:51:29.337Z,16.37
2023-05-01T09:54:01.633Z,16.26
2023-05-01T09:56:32.912Z,16.45
2023-05-01T09:59:21.268Z,16.48
2023-05-01T10:01:52.414Z,16.60
2023-05-01T10:04:35.127Z,16.39
2023-05-01T10:07:15.756Z,16.19
2023-05-01T10:09:45.786Z,16.29
2023-05-01T10:12:28.360Z,16.45
2023-05-01T10:15:03.395Z,16.77
2023-05-01T10:17:42.871Z,17.04
2023-05-01T10:20:14.267Z,17.16
2023-05-01T10:22:45.534Z,17.55
2023-05-01T10:25:16.330Z,17.87
2023-05-01T10:27:46.784Z,18.22
2023-05-01T10:30:17.920Z,18.37
2023-05-01T10:32:48.512Z,19.04
2023-05-01T10:35:26.762Z,19.25
2023-05-01T10:38:07.535Z,19.83
2023-05-01T10:40:46.099Z,19.94
2023-05-01T10:43:27.087Z,20.55
2023-05-01T10:46:22.740Z,20.64
2023-05-01T10:48:53.129Z,20.87
2023-05-01T10:51:27.307Z,21.26
2023-05-01T10:54:16.754Z,21.74
2023-05-01T10:56:46.728Z,21.81
2023-05-01T10:59:17.338Z,21.96
2023-05-01T11:01:53.109Z,21.86
2023-05-01T11:04:23.511Z,22.30
2023-05-01T11:07:18.869Z,22.66
2023-05-01T11:09:56.710Z,22.74
2023-05-01T11:12:48.257Z,22.97
2023-05-01T11:15:35.488Z,23.19
2023-05-01T11:18:07.192Z,23.64
2023-05-01T11:20:37.544Z,24.07
2023-05-01T11:23:07.464Z,24.43
2023-05-01T11:25:37.780Z,25.07
2023-05-01T11:28:10.912Z,25.40
2023-05-01T11:30:44.890Z,25.69
2023-05-01T11:33:18.027Z,26.15
2023-05-01T11:35:57.763Z,26.32
2023-05-01T11:38:27.698Z,26.59
2023-05-01T11:41:00.472Z,26.87
2023-05-01T11:43:30.618Z,27.10
2023-05-01T11:46:04.134Z,27.66
2023-05-01T11:48:34.575Z,28.00
2023-05-01T11:51:17.396Z,28.85
2023-05-01T11:54:10.661Z,28.96
2023-05-01T11:56:42.230Z,29.34
2023-05-01T11:59:15.042Z,29.78
2023-05-01T12:01:48.943Z,30.37
2023-05-01T12:04:31.663Z,30.20
2023-05-01T12:07:03.210Z,30.47
2023-05-01T12:09:34.941Z,30.64
2023-05-01T12:12:05.918Z,30.25
2023-05-01T12:14:35.942Z,30.74
2023-05-01T12:17:10.480Z,30.77
2023-05-01T12:19:50.147Z,30.39
2023-05-01T12:22:20.836Z,30.15
2023-05-01T12:24:57.306Z,30.52
2023-05-01T12:27:27.968Z,31.05
2023-05-01T12:30:00.749Z,31.64
2023-05-01T12:32:34.919Z,32.41
2023-05-01T12:35:16.400Z,32.22
2023-05-01T12:37:47.949Z,31.47
2023-05-01T12:40:20.121Z,31.25
2023-05-01T12:43:00.144Z,30.56
2023-05-01T12:45:30.185Z,30.48
2023-05-01T12:48:00.713Z,30.35
2023-05-01T12:50:30.556Z,29.89
2023-05-01T12:53:04.292Z,30.08
2023-05-01T12:55:37.139Z,30.70
2023-05-01T12:58:07.681Z,31.86
2023-05-01T13:00:48.827Z,32.70
2023-05-01T13:03:28.214Z,33.42
2023-05-01T13:06:03.314Z,33.93
2023-05-01T13:08:36.098Z,34.44
2023-05-01T13:11:15.082Z,34.50
2023-05-01T13:13:47.074Z,34.78
2023-05-01T13:16:18.366Z,35.42
2023-05-01T13:18:52.288Z,35.64
2023-05-01T13:21:26.386Z,35.95
2023-05-01T13:23:58.596Z,35.70
2023-05-01T13:26:34.001Z,35.20
2023-05-01T13:29:06.730Z,34.73
2023-05-01T13:31:36.771Z,34.69
2023-05-01T13:34:06.878Z,34.20
2023-05-01T13:36:37.620Z,33.62
2023-05-01T13:39:07.880Z,33.82
2023-05-01T13:41:43.679Z,34.01
2023-05-01T13:44:14.158Z,33.35
2023-05-01T13:46:44.691Z,33.09
2023-05-01T13:49:16.021Z,33.58
2023-05-01T13:51:47.805Z,33.99
2023-05-01T13:54:19.132Z,34.49
2023-05-01T13:56:49.045Z,34.80
2023-05-01T13:59:18.937Z,35.33
2023-05-01T14:01:49.082Z,35.21
2023-05-01T14:04:22.228Z,34.22
2023-05-01T14:06:52.535Z,34.73
2023-05-01T14:09:23.231Z,34.18
2023-05-01T14:12:00.731Z,33.82
2023-05-01T14:14:31.881Z,33.40
2023-05-01T14:17:01.826Z,33.83
2023-05-01T14:19:31.590Z,34.89
2023-05-01T14:22:01.982Z,35.18
2023-05-01T14:24:31.967Z,34.75
2023-05-01T14:27:03.006Z,35.02
2023-05-01T14:29:33.255Z,35.09
2023-05-01T14:32:07.132Z,35.05
2023-05-01T14:34:37.162Z,34.20
2023-05-01T14:37:07.482Z,33.16
2023-05-01T14:39:37.627Z,33.59
2023-05-01T14:42:12.100Z,33.27
2023-05-01T14:44:44.630Z,32.01
2023-05-01T14:47:23.069Z,31.14
2023-05-01T14:49:56.535Z,31.22
2023-05-01T14:52:26.962Z,31.83
2023-05-01T14:54:57.010Z,31.94
2023-05-01T14:57:29.167Z,32.16
2023-05-01T14:59:59.482Z,32.85
2023-05-01T15:02:31.393Z,33.06
2023-05-01T15:05:02.691Z,33.35
2023-05-01T15:07:33.262Z,33.50
2023-05-01T15:10:03.196Z,32.92
2023-05-01T15:12:33.656Z,32.59
2023-05-01T15:15:04.368Z,33.31
2023-05-01T15:17:35.003Z,33.99
2023-05-01T15:20:05.067Z,34.50
2023-05-01T15:22:34.789Z,33.50
2023-05-01T15:25:05.192Z,34.20
2023-05-01T15:27:34.922Z,33.55
2023-05-01T15:30:06.415Z,33.19
2023-05-01T15:32:36.546Z,33.33
2023-05-01T15:35:07.181Z,33.23
2023-05-01T15:37:37.218Z,34.84
2023-05-01T15:40:10.053Z,33.87
2023-05-01T15:42:41.134Z,33.27
2023-05-01T15:45:12.423Z,31.91
2023-05-01T15:47:42.350Z,32.48
2023-05-01T15:50:13.176Z,32.03
2023-05-01T15:52:43.190Z,31.97
2023-05-01T15:55:14.127Z,32.40
2023-05-01T15:57:50.460Z,32.18
2023-05-01T16:00:22.821Z,32.67
2023-05-01T16:02:53.368Z,33.92
2023-05-01T16:05:23.533Z,33.90
2023-05-01T16:07:56.981Z,32.79
2023-05-01T16:10:26.975Z,32.54
2023-05-01T16:12:57.456Z,33.09
2023-05-01T16:15:27.402Z,32.39
2023-05-01T16:17:57.809Z,31.86
2023-05-01T16:20:30.550Z,30.89
2023-05-01T16:23:00.869Z,32.36
2023-05-01T16:25:30.787Z,32.53
2023-05-01T16:28:01.234Z,33.29
2023-05-01T16:30:31.147Z,32.16
2023-05-01T16:33:04.366Z,32.24
2023-05-01T16:35:34.270Z,32.33
2023-05-01T16:38:04.765Z,31.74
2023-05-01T16:40:34.944Z,32.97
2023-05-01T16:43:05.800Z,33.39
2023-05-01T16:45:35.990Z,32.58
2023-05-01T16:48:06.713Z,31.75
2023-05-01T16:50:42.403Z,31.88
2023-05-01T16:53:12.749Z,32.43
2023-05-01T16:55:42.988Z,33.09
2023-05-01T16:58:13.392Z,32.64
2023-05-01T17:00:44.417Z,31.85
2023-05-01T17:03:16.580Z,32.08
2023-05-01T17:05:46.662Z,32.35
2023-05-01T17:08:17.344Z,31.68
2023-05-01T17:10:47.238Z,31.47
2023-05-01T17:13:17.578Z,31.36
2023-05-01T17:15:47.674Z,31.92
2023-05-01T17:18:18.047Z,31.06
2023-05-01T17:20:49.653Z,30.73
2023-05-01T17:23:20.040Z,31.37
2023-05-01T17:25:49.962Z,31.94
2023-05-01T17:28:20.378Z,31.74
2023-05-01T17:30:50.421Z,31.37
2023-05-01T17:33:20.848Z,31.13
2023-05-01T17:35:50.919Z,31.18
2023-05-01T17:38:21.286Z,30.97
2023-05-01T17:40:51.225Z,30.03
2023-05-01T17:43:21.956Z,31.43
2023-05-01T17:45:51.929Z,31.50
2023-05-01T17:48:23.024Z,31.29
2023-05-01T17:50:53.295Z,31.22
2023-05-01T17:53:24.418Z,30.73
2023-05-01T17:55:54.540Z,30.99
2023-05-01T17:58:24.915Z,31.41
2023-05-01T18:00:57.008Z,31.33
2023-05-01T18:03:29.573Z,30.72
2023-05-01T18:06:03.619Z,30.59
2023-05-01T18:08:34.084Z,30.41
2023-05-01T18:11:05.008Z,30.48
2023-05-01T18:13:39.307Z,29.90
2023-05-01T18:16:09.667Z,29.47
2023-05-01T18:18:40.286Z,29.45
2023-05-01T18:21:10.292Z,28.90
2023-05-01T18:23:41.038Z,28.84
2023-05-01T18:26:10.933Z,28.74
2023-05-01T18:28:41.250Z,28.54
2023-05-01T18:31:11.186Z,28.24
2023-05-01T18:33:41.727Z,27.97
2023-05-01T18:36:11.838Z,27.95
2023-05-01T18:38:42.300Z,28.46
2023-05-01T18:41:12.977Z,29.00
2023-05-01T18:43:44.401Z,28.82
2023-05-01T18:46:14.354Z,28.37
2023-05-01T18:48:44.770Z,28.20
2023-05-01T18:51:15.896Z,27.91
2023-05-01T18:53:46.259Z,27.67
2023-05-01T18:56:16.189Z,28.01
2023-05-01T18:58:46.633Z,28.10
2023-05-01T19:01:16.706Z,28.38
2023-05-01T19:03:47.225Z,28.48
2023-05-01T19:06:17.231Z,28.17
2023-05-01T19:08:47.653Z,27.99
2023-05-01T19:11:18.097Z,27.97
2023-05-01T19:13:48.729Z,27.75
2023-05-01T19:16:18.806Z,27.43
2023-05-01T19:18:49.286Z,27.06
2023-05-01T19:21:19.375Z,26.53
2023-05-01T19:23:50.233Z,26.19
2023-05-01T19:26:20.164Z,26.11
2023-05-01T19:28:50.562Z,25.84
2023-05-01T19:31:20.913Z,25.84
2023-05-01T19:33:51.392Z,25.73
2023-05-01T19:36:23.227Z,25.55
2023-05-01T19:38:53.120Z,25.38
2023-05-01T19:41:22.907Z,25.27
2023-05-01T19:43:52.714Z,25.25
2023-05-01T19:46:23.110Z,25.21
2023-05-01T19:48:53.470Z,25.11
2023-05-01T19:51:23.741Z,24.99
2023-05-01T19:53:53.507Z,25.01
2023-05-01T19:56:25.708Z,24.98
2023-05-01T19:58:56.201Z,24.72
2023-05-01T20:01:26.696Z,24.72
2023-05-01T20:03:56.787Z,24.74
2023-05-01T20:06:27.558Z,24.81
2023-05-01T20:08:57.580Z,24.84
2023-05-01T20:11:28.159Z,24.86
2023-05-01T20:13:58.200Z,24.85
2023-05-01T20:16:29.123Z,24.75
2023-05-01T20:18:59.070Z,24.62
2023-05-01T20:21:29.487Z,24.62
2023-05-01T20:23:59.450Z,24.49
2023-05-01T20:26:29.890Z,24.44
2023-05-01T20:28:59.908Z,24.40
2023-05-01T20:31:30.386Z,24.51
2023-05-01T20:34:00.360Z,24.51
2023-05-01T20:36:30.758Z,24.39
2023-05-01T20:39:00.646Z,24.26
2023-05-01T20:41:32.006Z,24.28
2023-05-01T20:44:03.469Z,24.18
2023-05-01T20:46:33.860Z,24.05
2023-05-01T20:49:03.846Z,23.91
2023-05-01T20:51:34.302Z,23.79
2023-05-01T20:54:04.215Z,23.72
2023-05-01T20:56:34.569Z,23.63
2023-05-01T20:59:06.002Z,23.58
2023-05-01T21:01:36.699Z,23.54
2023-05-01T21:04:07.388Z,23.45
2023-05-01T21:06:37.987Z,23.36
2023-05-01T21:09:09.630Z,23.29
2023-05-01T21:11:42.941Z,23.23
2023-05-01T21:14:13.079Z,23.11
2023-05-01T21:16:43.890Z,23.11
2023-05-01T21:19:16.510Z,23.07
2023-05-01T21:21:46.506Z,23.05
2023-05-01T21:24:24.821Z,22.96
2023-05-01T21:26:56.006Z,22.87
2023-05-01T21:29:26.438Z,22.79
2023-05-01T21:31:56.467Z,22.72
2023-05-01T21:34:26.954Z,22.74
2023-05-01T21:36:56.859Z,22.67
2023-05-01T21:39:27.890Z,22.71
2023-05-01T21:41:58.534Z,22.69
2023-05-01T21:44:32.152Z,22.61
2023-05-01T21:47:03.630Z,22.60
2023-05-01T21:49:33.904Z,22.60
2023-05-01T21:52:04.343Z,22.66
2023-05-01T21:54:35.902Z,22.55
2023-05-01T21:57:09.226Z,22.61
2023-05-01T21:59:40.215Z,22.58
2023-05-01T22:02:12.112Z,22.58
2023-05-01T22:04:42.644Z,22.53
2023-05-01T22:07:13.323Z,22.52
2023-05-01T22:09:43.279Z,22.41
2023-05-01T22:12:13.637Z,22.43
2023-05-01T22:14:47.490Z,22.35
2023-05-01T22:17:25.089Z,22.36
2023-05-01T22:19:55.208Z,22.31
2023-05-01T22:22:25.669Z,22.35
2023-05-01T22:24:55.600Z,22.28
2023-05-01T22:27:25.948Z,22.27
2023-05-01T22:29:55.891Z,22.16
2023-05-01T22:32:26.468Z,22.16
2023-05-01T22:34:56.720Z,22.14
2023-05-01T22:37:27.388Z,22.12
2023-05-01T22:39:57.837Z,22.16
2023-05-01T22:42:28.500Z,22.10
2023-05-01T22:44:58.455Z,22.07
2023-05-01T22:47:28.915Z,22.03
2023-05-01T22:49:59.332Z,22.04
2023-05-01T22:52:29.834Z,22.05
2023-05-01T22:54:59.840Z,22.04
2023-05-01T22:57:30.126Z,22.03
2023-05-01T23:00:00.557Z,21.98
2023-05-01T23:02:31.486Z,21.98
2023-05-01T23:05:01.402Z,21.93
2023-05-01T23:07:34.565Z,21.98
2023-05-01T23:10:04.503Z,22.01
2023-05-01T23:12:35.181Z,22.14
2023-05-01T23:15:05.863Z,22.18
2023-05-01T23:17:37.155Z,22.16
2023-05-01T23:20:14.108Z,22.09
2023-05-01T23:22:44.002Z,22.08
2023-05-01T23:25:15.305Z,22.12
2023-05-01T23:27:49.465Z,22.12
2023-05-01T23:30:23.134Z,22.06
2023-05-01T23:32:53.524Z,22.09
2023-05-01T23:35:27.164Z,21.97
2023-05-01T23:37:57.176Z,21.92
2023-05-01T23:40:27.576Z,21.92
2023-05-01T23:42:57.332Z,21.95
2023-05-01T23:45:27.936Z,21.96
2023-05-01T23:47:58.356Z,21.89
2023-05-01T23:50:28.986Z,21.88
2023-05-01T23:52:59.253Z,21.93
2023-05-01T23:55:29.689Z,22.01
2023-05-01T23:57:59.586Z,22.00
